Crystal Mountain, Washington
Current Conditions -  °F | °C
As of 2:53 AM on Friday 28 Nov 2014 (Local Time) from KRNT Reporting Station
Overcast Overcast  
Wind Chill: 13°   Ceiling: 2700
Heat Index: 13°   Visibility: 10mi
Dew Point: 10°   Wind: 10mph
Humidity: 80%   Direction: 160°SSE
Pressure: 29.64"   Gusts: NA
Location:  47.1782°N, 121.641°W
Report Text: KRNT 281053Z AUTO 16009KT 10SM BKN027 OVC045 13/10 A2964 RMK AO2 RAE0956B30E43 SLP041 P0000 T01330100
Loading
Personal Weather Stations






























Interactive Weather Map New forecast layout! Learn more

10-Day Weather Forecast

Advertisements
Track Severe Weather on mobile